Animas, NM

10:40 PM MST on November 27, 2014 (GMT -0700)
Rodeo, NM | Change Station
CLOSE
Current Station
Personal Weather Station
Location: Rodeo, NM
Elevation: 4236 ft
Nearby Weather Stations

Elev 4236 ft 31.80 °N, 109.02 °W | Updated 6 seconds ago

Clear
Clear
50.5 °F
Feels Like 50.5 °F
N
0.9
Wind Variable Wind from ENE
Gusts 1.0 mph

Today
High -- | Low -- °F
--% Chance of Precip.
Yesterday
High -- | Low -- °F
Precip. -- in
6:54 AM 5:11 PM
Waxing Crescent, 36% visible
Pressure 30.16 in
Visibility 10.0 miles
Clouds Clear
Dew Point 23 °F
Humidity 34%
Rainfall 0.00 in
Snow Depth Not available.
UV 0 out of 12
Pollen 3.60 out of 12
Air Quality Not available.
Flu Activity Not available.
METAR KDUG 280456Z AUTO 35004KT 10SM CLR 09/M07 A3026 RMK AO2 SLP211 T00941067

More Conditions Fewer Conditions

Pressure 30.16 in
Visibility 10.0 miles
Clouds Clear
Dew Point 23 °F
Humidity 34%
Rainfall 0.00 in
Snow Depth Not available.
UV 0 out of 12
Pollen 3.60 out of 12
Air Quality Not available.
Flu Activity Not available.
METAR KDUG 280456Z AUTO 35004KT 10SM CLR 09/M07 A3026 RMK AO2 SLP211 T00941067

More Conditions Fewer Conditions

10-Day Weather Forecast

Almanac

Astronomy

Nov. 27, 2014 Rise Set
Actual Time
Civil Twilight
Nautical Twilight
Astronomical Twilight
Moon
Length of Visible Light
Length of Day
Tomorrow will be .
, % of the Moon is Illuminated

Today's Extremes

State Highs State Lows

Community

WunderPhotos

Upload Photos

1,774,195 photos uploaded!

WunderBlogs® & News

Nearby

Air Quality

  Air Quality AQ Index Pollutant
Not available.

Snow Depth

Station Depth Elevation

Earthquake Activity

City Distance Mag. Time & Date
Minimum magnitude displayed is 2.5.

Coastal Water Temperatures

Place Temperature

Nearby Weather Stations